sensor_id;sensor_type;location;lat;lon;timestamp;temperature;humidity
38910;DHT22;24676;51.360;12.354;2023-02-23T00:01:58;7.40;99.90
38910;DHT22;24676;51.360;12.354;2023-02-23T00:04:50;7.40;99.90
38910;DHT22;24676;51.360;12.354;2023-02-23T00:07:34;7.40;99.90
38910;DHT22;24676;51.360;12.354;2023-02-23T00:10:20;7.40;99.90
38910;DHT22;24676;51.360;12.354;2023-02-23T00:13:05;7.40;99.90
38910;DHT22;24676;51.360;12.354;2023-02-23T00:15:49;7.40;99.90
38910;DHT22;24676;51.360;12.354;2023-02-23T00:18:34;7.40;99.90
38910;DHT22;24676;51.360;12.354;2023-02-23T00:21:30;7.40;99.90
38910;DHT22;24676;51.360;12.354;2023-02-23T00:24:16;7.30;99.90
38910;DHT22;24676;51.360;12.354;2023-02-23T00:27:09;7.30;99.90
38910;DHT22;24676;51.360;12.354;2023-02-23T00:29:56;7.40;99.90
38910;DHT22;24676;51.360;12.354;2023-02-23T00:32:40;7.40;99.90
38910;DHT22;24676;51.360;12.354;2023-02-23T00:35:25;7.50;99.90
38910;DHT22;24676;51.360;12.354;2023-02-23T00:38:09;7.60;99.90
38910;DHT22;24676;51.360;12.354;2023-02-23T00:40:54;7.50;99.90
38910;DHT22;24676;51.360;12.354;2023-02-23T00:43:40;7.50;99.90
38910;DHT22;24676;51.360;12.354;2023-02-23T00:46:33;7.50;99.90
38910;DHT22;24676;51.360;12.354;2023-02-23T00:49:19;7.40;99.90
38910;DHT22;24676;51.360;12.354;2023-02-23T00:52:03;7.40;99.90
38910;DHT22;24676;51.360;12.354;2023-02-23T00:54:48;7.30;99.90
38910;DHT22;24676;51.360;12.354;2023-02-23T00:57:32;7.30;99.90
38910;DHT22;24676;51.360;12.354;2023-02-23T01:00:17;7.30;99.90
38910;DHT22;24676;51.360;12.354;2023-02-23T01:03:03;7.20;99.90
38910;DHT22;24676;51.360;12.354;2023-02-23T01:05:47;7.20;99.90
38910;DHT22;24676;51.360;12.354;2023-02-23T01:08:37;7.20;99.90
38910;DHT22;24676;51.360;12.354;2023-02-23T01:11:27;7.20;99.90
38910;DHT22;24676;51.360;12.354;2023-02-23T01:14:14;7.20;99.90
38910;DHT22;24676;51.360;12.354;2023-02-23T01:16:59;7.20;99.90
38910;DHT22;24676;51.360;12.354;2023-02-23T01:19:43;7.10;99.90
38910;DHT22;24676;51.360;12.354;2023-02-23T01:22:27;7.00;99.90
38910;DHT22;24676;51.360;12.354;2023-02-23T01:25:12;7.00;99.90
38910;DHT22;24676;51.360;12.354;2023-02-23T01:27:56;7.00;99.90
38910;DHT22;24676;51.360;12.354;2023-02-23T01:30:41;7.00;99.90
38910;DHT22;24676;51.360;12.354;2023-02-23T01:33:25;6.90;99.90
38910;DHT22;24676;51.360;12.354;2023-02-23T01:36:10;7.00;99.90
38910;DHT22;24676;51.360;12.354;2023-02-23T01:38:55;7.00;99.90
38910;DHT22;24676;51.360;12.354;2023-02-23T01:41:41;7.00;99.90
38910;DHT22;24676;51.360;12.354;2023-02-23T01:47:15;7.10;99.90
38910;DHT22;24676;51.360;12.354;2023-02-23T01:50:00;7.10;99.90
38910;DHT22;24676;51.360;12.354;2023-02-23T01:52:46;7.10;99.90
38910;DHT22;24676;51.360;12.354;2023-02-23T01:55:32;7.10;99.90
38910;DHT22;24676;51.360;12.354;2023-02-23T01:58:18;7.00;99.90
38910;DHT22;24676;51.360;12.354;2023-02-23T02:01:02;7.00;99.90
38910;DHT22;24676;51.360;12.354;2023-02-23T02:03:48;7.00;99.90
38910;DHT22;24676;51.360;12.354;2023-02-23T02:06:35;7.00;99.90
38910;DHT22;24676;51.360;12.354;2023-02-23T02:09:21;6.90;99.90
38910;DHT22;24676;51.360;12.354;2023-02-23T02:12:11;6.90;99.90
38910;DHT22;24676;51.360;12.354;2023-02-23T02:14:57;6.90;99.90
38910;DHT22;24676;51.360;12.354;2023-02-23T02:21:28;6.80;99.90
38910;DHT22;24676;51.360;12.354;2023-02-23T02:24:41;6.80;99.90
38910;DHT22;24676;51.360;12.354;2023-02-23T02:43:16;6.80;99.90
38910;DHT22;24676;51.360;12.354;2023-02-23T02:46:13;6.80;99.90
38910;DHT22;24676;51.360;12.354;2023-02-23T02:55:02;6.80;99.90
38910;DHT22;24676;51.360;12.354;2023-02-23T02:57:49;6.80;99.90
38910;DHT22;24676;51.360;12.354;2023-02-23T03:00:38;6.80;99.90
38910;DHT22;24676;51.360;12.354;2023-02-23T03:03:44;6.80;99.90
38910;DHT22;24676;51.360;12.354;2023-02-23T03:07:01;6.80;99.90
38910;DHT22;24676;51.360;12.354;2023-02-23T03:10:13;6.90;99.90
38910;DHT22;24676;51.360;12.354;2023-02-23T03:13:22;6.90;99.90
38910;DHT22;24676;51.360;12.354;2023-02-23T03:16:50;6.90;99.90
38910;DHT22;24676;51.360;12.354;2023-02-23T03:23:31;6.90;99.90
38910;DHT22;24676;51.360;12.354;2023-02-23T03:26:58;7.00;99.90
38910;DHT22;24676;51.360;12.354;2023-02-23T03:30:15;7.10;99.90
38910;DHT22;24676;51.360;12.354;2023-02-23T03:34:16;7.10;99.90
38910;DHT22;24676;51.360;12.354;2023-02-23T03:37:07;7.10;99.90
38910;DHT22;24676;51.360;12.354;2023-02-23T03:40:46;7.10;99.90
38910;DHT22;24676;51.360;12.354;2023-02-23T03:43:57;7.10;99.90
38910;DHT22;24676;51.360;12.354;2023-02-23T03:47:02;7.20;99.90
38910;DHT22;24676;51.360;12.354;2023-02-23T03:50:09;7.30;99.90
38910;DHT22;24676;51.360;12.354;2023-02-23T03:53:16;7.30;99.90
38910;DHT22;24676;51.360;12.354;2023-02-23T03:56:23;7.40;99.90
38910;DHT22;24676;51.360;12.354;2023-02-23T03:59:33;7.40;99.90
38910;DHT22;24676;51.360;12.354;2023-02-23T04:02:37;7.40;99.90
38910;DHT22;24676;51.360;12.354;2023-02-23T04:05:43;7.50;99.90
38910;DHT22;24676;51.360;12.354;2023-02-23T04:08:48;7.50;99.90
38910;DHT22;24676;51.360;12.354;2023-02-23T04:12:08;7.50;99.90
38910;DHT22;24676;51.360;12.354;2023-02-23T04:15:34;7.60;99.90
38910;DHT22;24676;51.360;12.354;2023-02-23T04:18:28;7.60;99.90
38910;DHT22;24676;51.360;12.354;2023-02-23T04:21:12;7.60;99.90
38910;DHT22;24676;51.360;12.354;2023-02-23T04:23:56;7.60;99.90
38910;DHT22;24676;51.360;12.354;2023-02-23T04:26:41;7.60;99.90
38910;DHT22;24676;51.360;12.354;2023-02-23T04:29:25;7.70;99.90
38910;DHT22;24676;51.360;12.354;2023-02-23T04:32:15;7.60;99.90
38910;DHT22;24676;51.360;12.354;2023-02-23T04:34:59;7.70;99.90
38910;DHT22;24676;51.360;12.354;2023-02-23T04:37:44;7.70;99.90
38910;DHT22;24676;51.360;12.354;2023-02-23T04:40:28;7.70;99.90
38910;DHT22;24676;51.360;12.354;2023-02-23T04:43:13;7.70;99.90
38910;DHT22;24676;51.360;12.354;2023-02-23T04:45:57;7.70;99.90
38910;DHT22;24676;51.360;12.354;2023-02-23T04:48:42;7.70;99.90
38910;DHT22;24676;51.360;12.354;2023-02-23T04:51:26;7.70;99.90
38910;DHT22;24676;51.360;12.354;2023-02-23T04:54:15;7.70;99.90
38910;DHT22;24676;51.360;12.354;2023-02-23T04:57:00;7.70;99.90
38910;DHT22;24676;51.360;12.354;2023-02-23T04:59:44;7.80;99.90
38910;DHT22;24676;51.360;12.354;2023-02-23T05:02:28;7.80;99.90
38910;DHT22;24676;51.360;12.354;2023-02-23T05:05:12;7.80;99.90
38910;DHT22;24676;51.360;12.354;2023-02-23T05:07:57;7.80;99.90
38910;DHT22;24676;51.360;12.354;2023-02-23T05:10:41;7.80;99.90
38910;DHT22;24676;51.360;12.354;2023-02-23T05:13:25;7.80;99.90
38910;DHT22;24676;51.360;12.354;2023-02-23T05:16:09;7.70;99.90
38910;DHT22;24676;51.360;12.354;2023-02-23T05:18:54;7.80;99.90
38910;DHT22;24676;51.360;12.354;2023-02-23T05:21:39;7.80;99.90
38910;DHT22;24676;51.360;12.354;2023-02-23T05:24:24;7.80;99.90
38910;DHT22;24676;51.360;12.354;2023-02-23T05:27:09;7.70;99.90
38910;DHT22;24676;51.360;12.354;2023-02-23T05:29:53;7.70;99.90
38910;DHT22;24676;51.360;12.354;2023-02-23T05:32:38;7.70;99.90
38910;DHT22;24676;51.360;12.354;2023-02-23T05:35:22;7.60;99.90
38910;DHT22;24676;51.360;12.354;2023-02-23T05:38:06;7.60;99.90
38910;DHT22;24676;51.360;12.354;2023-02-23T05:40:51;7.60;99.90
38910;DHT22;24676;51.360;12.354;2023-02-23T05:43:35;7.60;99.90
38910;DHT22;24676;51.360;12.354;2023-02-23T05:46:24;7.60;99.90
38910;DHT22;24676;51.360;12.354;2023-02-23T05:49:09;7.50;99.90
38910;DHT22;24676;51.360;12.354;2023-02-23T05:51:53;7.50;99.90
38910;DHT22;24676;51.360;12.354;2023-02-23T05:54:37;7.50;99.90
38910;DHT22;24676;51.360;12.354;2023-02-23T05:57:21;7.50;99.90
38910;DHT22;24676;51.360;12.354;2023-02-23T06:00:07;7.40;99.90
38910;DHT22;24676;51.360;12.354;2023-02-23T06:02:51;7.40;99.90
38910;DHT22;24676;51.360;12.354;2023-02-23T06:05:36;7.40;99.90
38910;DHT22;24676;51.360;12.354;2023-02-23T06:08:21;7.40;99.90
38910;DHT22;24676;51.360;12.354;2023-02-23T06:11:05;7.40;99.90
38910;DHT22;24676;51.360;12.354;2023-02-23T06:13:49;7.40;99.90
38910;DHT22;24676;51.360;12.354;2023-02-23T06:16:35;7.40;99.90
38910;DHT22;24676;51.360;12.354;2023-02-23T06:19:19;7.40;99.90
38910;DHT22;24676;51.360;12.354;2023-02-23T06:22:04;7.40;99.90
38910;DHT22;24676;51.360;12.354;2023-02-23T06:24:49;7.40;99.90
38910;DHT22;24676;51.360;12.354;2023-02-23T06:27:33;7.50;99.90
38910;DHT22;24676;51.360;12.354;2023-02-23T06:30:19;7.50;99.90
38910;DHT22;24676;51.360;12.354;2023-02-23T06:33:04;7.60;99.90
38910;DHT22;24676;51.360;12.354;2023-02-23T06:35:48;7.60;99.90
38910;DHT22;24676;51.360;12.354;2023-02-23T06:38:32;7.70;99.90
38910;DHT22;24676;51.360;12.354;2023-02-23T06:41:17;7.80;99.90
38910;DHT22;24676;51.360;12.354;2023-02-23T06:44:01;7.80;99.90
38910;DHT22;24676;51.360;12.354;2023-02-23T06:46:45;7.80;99.90
38910;DHT22;24676;51.360;12.354;2023-02-23T06:49:29;7.80;99.90
38910;DHT22;24676;51.360;12.354;2023-02-23T06:52:14;7.90;99.90
38910;DHT22;24676;51.360;12.354;2023-02-23T06:54:58;8.00;99.90
38910;DHT22;24676;51.360;12.354;2023-02-23T06:57:42;8.00;99.90
38910;DHT22;24676;51.360;12.354;2023-02-23T07:00:26;8.10;99.90
38910;DHT22;24676;51.360;12.354;2023-02-23T07:03:14;8.10;99.90
38910;DHT22;24676;51.360;12.354;2023-02-23T07:05:58;8.20;99.90
38910;DHT22;24676;51.360;12.354;2023-02-23T07:08:42;8.30;99.90
38910;DHT22;24676;51.360;12.354;2023-02-23T07:11:27;8.40;99.90
38910;DHT22;24676;51.360;12.354;2023-02-23T07:14:14;8.40;99.90
38910;DHT22;24676;51.360;12.354;2023-02-23T07:16:59;8.50;99.90
38910;DHT22;24676;51.360;12.354;2023-02-23T07:19:43;8.50;99.90
38910;DHT22;24676;51.360;12.354;2023-02-23T07:22:28;8.60;99.90
38910;DHT22;24676;51.360;12.354;2023-02-23T07:25:13;8.70;99.90
38910;DHT22;24676;51.360;12.354;2023-02-23T07:27:58;8.70;99.90
38910;DHT22;24676;51.360;12.354;2023-02-23T07:30:42;8.70;99.90
38910;DHT22;24676;51.360;12.354;2023-02-23T07:33:27;8.80;99.90
38910;DHT22;24676;51.360;12.354;2023-02-23T07:36:11;8.90;99.90
38910;DHT22;24676;51.360;12.354;2023-02-23T07:38:55;8.90;99.90
38910;DHT22;24676;51.360;12.354;2023-02-23T07:41:40;9.00;99.90
38910;DHT22;24676;51.360;12.354;2023-02-23T07:44:24;9.10;99.90
38910;DHT22;24676;51.360;12.354;2023-02-23T07:47:08;9.20;99.90
38910;DHT22;24676;51.360;12.354;2023-02-23T07:49:52;9.30;99.90
38910;DHT22;24676;51.360;12.354;2023-02-23T07:52:38;9.40;99.90
38910;DHT22;24676;51.360;12.354;2023-02-23T07:55:23;9.60;99.90
38910;DHT22;24676;51.360;12.354;2023-02-23T07:58:08;9.70;99.90
38910;DHT22;24676;51.360;12.354;2023-02-23T08:00:56;9.90;99.90
38910;DHT22;24676;51.360;12.354;2023-02-23T08:03:43;9.90;99.90
38910;DHT22;24676;51.360;12.354;2023-02-23T08:06:32;10.00;99.90
38910;DHT22;24676;51.360;12.354;2023-02-23T08:09:16;10.00;99.90
38910;DHT22;24676;51.360;12.354;2023-02-23T08:12:02;10.10;99.90
38910;DHT22;24676;51.360;12.354;2023-02-23T08:14:46;10.10;99.90
38910;DHT22;24676;51.360;12.354;2023-02-23T08:17:30;10.20;99.90
38910;DHT22;24676;51.360;12.354;2023-02-23T08:20:15;10.30;99.90
38910;DHT22;24676;51.360;12.354;2023-02-23T08:22:59;10.40;99.90
38910;DHT22;24676;51.360;12.354;2023-02-23T08:25:43;10.50;99.90
38910;DHT22;24676;51.360;12.354;2023-02-23T08:28:28;10.60;99.90
38910;DHT22;24676;51.360;12.354;2023-02-23T08:31:14;10.70;99.90
38910;DHT22;24676;51.360;12.354;2023-02-23T08:34:01;10.80;99.90
38910;DHT22;24676;51.360;12.354;2023-02-23T08:36:45;11.00;99.90
38910;DHT22;24676;51.360;12.354;2023-02-23T08:39:29;11.00;99.90
38910;DHT22;24676;51.360;12.354;2023-02-23T08:42:14;11.10;99.90
38910;DHT22;24676;51.360;12.354;2023-02-23T08:44:59;11.30;99.90
38910;DHT22;24676;51.360;12.354;2023-02-23T08:47:44;11.60;99.90
38910;DHT22;24676;51.360;12.354;2023-02-23T08:50:29;11.80;99.90
38910;DHT22;24676;51.360;12.354;2023-02-23T08:53:13;11.80;99.90
38910;DHT22;24676;51.360;12.354;2023-02-23T08:55:59;12.00;99.90
38910;DHT22;24676;51.360;12.354;2023-02-23T08:58:43;12.00;99.90
38910;DHT22;24676;51.360;12.354;2023-02-23T09:01:27;12.00;99.90
38910;DHT22;24676;51.360;12.354;2023-02-23T09:04:11;12.10;99.90
38910;DHT22;24676;51.360;12.354;2023-02-23T09:06:56;12.20;99.90
38910;DHT22;24676;51.360;12.354;2023-02-23T09:09:40;12.30;99.90
38910;DHT22;24676;51.360;12.354;2023-02-23T09:12:24;12.50;99.90
38910;DHT22;24676;51.360;12.354;2023-02-23T09:15:09;12.70;99.90
38910;DHT22;24676;51.360;12.354;2023-02-23T09:17:52;12.90;99.90
38910;DHT22;24676;51.360;12.354;2023-02-23T09:20:39;13.10;99.90
38910;DHT22;24676;51.360;12.354;2023-02-23T09:23:26;13.30;99.90
38910;DHT22;24676;51.360;12.354;2023-02-23T09:26:11;13.70;99.90
38910;DHT22;24676;51.360;12.354;2023-02-23T09:28:56;14.20;99.90
38910;DHT22;24676;51.360;12.354;2023-02-23T09:31:41;14.60;99.90
38910;DHT22;24676;51.360;12.354;2023-02-23T09:34:26;15.00;99.90
38910;DHT22;24676;51.360;12.354;2023-02-23T09:37:13;15.00;99.90
38910;DHT22;24676;51.360;12.354;2023-02-23T09:39:58;14.90;99.90
38910;DHT22;24676;51.360;12.354;2023-02-23T09:48:24;15.20;99.90
38910;DHT22;24676;51.360;12.354;2023-02-23T09:51:10;15.10;99.90
38910;DHT22;24676;51.360;12.354;2023-02-23T09:53:58;14.80;99.90
38910;DHT22;24676;51.360;12.354;2023-02-23T09:56:47;14.50;99.90
38910;DHT22;24676;51.360;12.354;2023-02-23T09:59:33;14.40;99.90
38910;DHT22;24676;51.360;12.354;2023-02-23T10:02:29;14.60;99.90
38910;DHT22;24676;51.360;12.354;2023-02-23T10:05:18;14.60;99.90
38910;DHT22;24676;51.360;12.354;2023-02-23T10:08:17;14.70;99.90
38910;DHT22;24676;51.360;12.354;2023-02-23T10:11:22;14.70;99.90
38910;DHT22;24676;51.360;12.354;2023-02-23T10:14:22;14.90;99.90
38910;DHT22;24676;51.360;12.354;2023-02-23T10:23:49;14.80;99.90
38910;DHT22;24676;51.360;12.354;2023-02-23T10:26:41;14.80;99.90
38910;DHT22;24676;51.360;12.354;2023-02-23T10:29:38;14.70;99.90
38910;DHT22;24676;51.360;12.354;2023-02-23T10:35:31;15.00;99.90
38910;DHT22;24676;51.360;12.354;2023-02-23T10:38:17;14.90;99.90
38910;DHT22;24676;51.360;12.354;2023-02-23T10:41:01;14.90;99.90
38910;DHT22;24676;51.360;12.354;2023-02-23T10:43:46;14.80;99.90
38910;DHT22;24676;51.360;12.354;2023-02-23T10:46:35;14.80;99.90
38910;DHT22;24676;51.360;12.354;2023-02-23T10:49:21;14.80;99.90
38910;DHT22;24676;51.360;12.354;2023-02-23T10:52:10;14.80;99.90
38910;DHT22;24676;51.360;12.354;2023-02-23T10:54:56;15.10;99.90
38910;DHT22;24676;51.360;12.354;2023-02-23T10:57:41;15.40;99.90
38910;DHT22;24676;51.360;12.354;2023-02-23T11:00:26;15.70;99.90
38910;DHT22;24676;51.360;12.354;2023-02-23T11:03:32;15.80;99.90
38910;DHT22;24676;51.360;12.354;2023-02-23T11:06:29;15.90;99.90
38910;DHT22;24676;51.360;12.354;2023-02-23T11:09:24;16.20;99.90
38910;DHT22;24676;51.360;12.354;2023-02-23T11:15:36;16.30;99.90
38910;DHT22;24676;51.360;12.354;2023-02-23T11:18:27;16.50;99.90
38910;DHT22;24676;51.360;12.354;2023-02-23T11:21:16;16.40;99.90
38910;DHT22;24676;51.360;12.354;2023-02-23T11:24:20;16.30;99.90
38910;DHT22;24676;51.360;12.354;2023-02-23T11:27:17;16.40;99.90
38910;DHT22;24676;51.360;12.354;2023-02-23T11:30:04;16.40;99.90
38910;DHT22;24676;51.360;12.354;2023-02-23T11:32:55;16.50;99.90
38910;DHT22;24676;51.360;12.354;2023-02-23T11:35:40;16.40;99.90
38910;DHT22;24676;51.360;12.354;2023-02-23T11:38:27;16.60;99.90
38910;DHT22;24676;51.360;12.354;2023-02-23T11:41:22;17.00;98.70
38910;DHT22;24676;51.360;12.354;2023-02-23T11:44:21;17.30;96.70
38910;DHT22;24676;51.360;12.354;2023-02-23T11:47:17;17.40;94.10
38910;DHT22;24676;51.360;12.354;2023-02-23T11:50:03;17.30;97.00
38910;DHT22;24676;51.360;12.354;2023-02-23T11:52:53;17.20;95.10
38910;DHT22;24676;51.360;12.354;2023-02-23T11:55:39;17.20;94.60
38910;DHT22;24676;51.360;12.354;2023-02-23T12:01:14;16.70;94.80
38910;DHT22;24676;51.360;12.354;2023-02-23T12:03:59;16.60;97.00
38910;DHT22;24676;51.360;12.354;2023-02-23T12:06:43;16.30;98.20
38910;DHT22;24676;51.360;12.354;2023-02-23T12:09:28;16.30;99.90
38910;DHT22;24676;51.360;12.354;2023-02-23T12:12:19;16.20;99.90
38910;DHT22;24676;51.360;12.354;2023-02-23T12:15:15;16.30;99.90
38910;DHT22;24676;51.360;12.354;2023-02-23T12:27:03;16.00;99.90
38910;DHT22;24676;51.360;12.354;2023-02-23T12:29:54;15.70;99.90
38910;DHT22;24676;51.360;12.354;2023-02-23T12:38:14;15.20;99.90
38910;DHT22;24676;51.360;12.354;2023-02-23T12:41:02;15.10;99.90
38910;DHT22;24676;51.360;12.354;2023-02-23T12:43:55;15.20;99.90
38910;DHT22;24676;51.360;12.354;2023-02-23T12:46:45;15.20;99.90
38910;DHT22;24676;51.360;12.354;2023-02-23T12:49:38;15.00;99.90
38910;DHT22;24676;51.360;12.354;2023-02-23T12:52:28;14.80;99.90
38910;DHT22;24676;51.360;12.354;2023-02-23T12:55:15;14.70;99.90
38910;DHT22;24676;51.360;12.354;2023-02-23T12:58:18;14.70;99.90
38910;DHT22;24676;51.360;12.354;2023-02-23T13:06:54;14.70;99.90
38910;DHT22;24676;51.360;12.354;2023-02-23T13:09:50;14.70;99.90
38910;DHT22;24676;51.360;12.354;2023-02-23T13:13:14;14.60;99.90
38910;DHT22;24676;51.360;12.354;2023-02-23T13:16:25;14.30;99.90
38910;DHT22;24676;51.360;12.354;2023-02-23T13:19:25;14.20;99.90
38910;DHT22;24676;51.360;12.354;2023-02-23T13:34:09;13.70;99.90
38910;DHT22;24676;51.360;12.354;2023-02-23T13:36:56;13.70;99.90
38910;DHT22;24676;51.360;12.354;2023-02-23T13:48:58;13.70;99.90
38910;DHT22;24676;51.360;12.354;2023-02-23T13:51:55;13.90;99.90
38910;DHT22;24676;51.360;12.354;2023-02-23T13:54:51;14.00;99.90
38910;DHT22;24676;51.360;12.354;2023-02-23T13:57:42;14.10;99.90
38910;DHT22;24676;51.360;12.354;2023-02-23T14:00:27;14.10;99.90
38910;DHT22;24676;51.360;12.354;2023-02-23T14:03:19;14.10;99.90
38910;DHT22;24676;51.360;12.354;2023-02-23T14:06:04;14.10;99.90
38910;DHT22;24676;51.360;12.354;2023-02-23T14:09:27;14.20;99.90
38910;DHT22;24676;51.360;12.354;2023-02-23T14:14:53;14.10;99.90
38910;DHT22;24676;51.360;12.354;2023-02-23T14:17:38;14.10;99.90
38910;DHT22;24676;51.360;12.354;2023-02-23T14:20:25;14.00;99.90
38910;DHT22;24676;51.360;12.354;2023-02-23T14:26:15;13.90;99.90
38910;DHT22;24676;51.360;12.354;2023-02-23T14:38:33;13.60;99.90
38910;DHT22;24676;51.360;12.354;2023-02-23T14:41:23;13.50;99.90
38910;DHT22;24676;51.360;12.354;2023-02-23T14:44:18;13.40;99.90
38910;DHT22;24676;51.360;12.354;2023-02-23T14:47:24;13.30;99.90
38910;DHT22;24676;51.360;12.354;2023-02-23T14:50:17;13.30;99.90
38910;DHT22;24676;51.360;12.354;2023-02-23T14:53:05;13.20;99.90
38910;DHT22;24676;51.360;12.354;2023-02-23T14:55:52;13.10;99.90
38910;DHT22;24676;51.360;12.354;2023-02-23T14:58:36;13.10;99.90
38910;DHT22;24676;51.360;12.354;2023-02-23T15:01:34;13.00;99.90
38910;DHT22;24676;51.360;12.354;2023-02-23T15:04:22;13.00;99.90
38910;DHT22;24676;51.360;12.354;2023-02-23T15:07:14;12.90;99.90
38910;DHT22;24676;51.360;12.354;2023-02-23T15:10:11;12.80;99.90
38910;DHT22;24676;51.360;12.354;2023-02-23T15:13:06;12.80;99.90
38910;DHT22;24676;51.360;12.354;2023-02-23T15:15:52;12.70;99.90
38910;DHT22;24676;51.360;12.354;2023-02-23T15:18:38;12.60;99.90
38910;DHT22;24676;51.360;12.354;2023-02-23T15:21:23;12.50;99.90
38910;DHT22;24676;51.360;12.354;2023-02-23T15:24:13;12.50;99.90
38910;DHT22;24676;51.360;12.354;2023-02-23T15:27:04;12.50;99.90
38910;DHT22;24676;51.360;12.354;2023-02-23T15:29:49;12.30;99.90
38910;DHT22;24676;51.360;12.354;2023-02-23T15:32:36;12.30;99.90
38910;DHT22;24676;51.360;12.354;2023-02-23T15:35:21;12.20;99.90
38910;DHT22;24676;51.360;12.354;2023-02-23T15:38:07;12.20;99.90
38910;DHT22;24676;51.360;12.354;2023-02-23T15:40:56;12.20;99.90
38910;DHT22;24676;51.360;12.354;2023-02-23T15:43:41;12.20;99.90
38910;DHT22;24676;51.360;12.354;2023-02-23T15:46:27;12.10;99.90
38910;DHT22;24676;51.360;12.354;2023-02-23T15:49:12;12.00;99.90
38910;DHT22;24676;51.360;12.354;2023-02-23T15:52:08;11.90;99.90
38910;DHT22;24676;51.360;12.354;2023-02-23T15:55:01;11.80;99.90
38910;DHT22;24676;51.360;12.354;2023-02-23T15:57:55;11.70;99.90
38910;DHT22;24676;51.360;12.354;2023-02-23T16:00:41;11.60;99.90
38910;DHT22;24676;51.360;12.354;2023-02-23T16:03:30;11.40;99.90
38910;DHT22;24676;51.360;12.354;2023-02-23T16:06:36;11.30;99.90
38910;DHT22;24676;51.360;12.354;2023-02-23T16:12:12;11.10;99.90
38910;DHT22;24676;51.360;12.354;2023-02-23T16:15:45;11.10;99.90
38910;DHT22;24676;51.360;12.354;2023-02-23T16:18:05;11.00;99.90
38910;DHT22;24676;51.360;12.354;2023-02-23T16:20:54;11.00;99.90
38910;DHT22;24676;51.360;12.354;2023-02-23T16:23:47;10.90;99.90
38910;DHT22;24676;51.360;12.354;2023-02-23T16:26:46;10.90;99.90
38910;DHT22;24676;51.360;12.354;2023-02-23T16:29:36;10.80;99.90
38910;DHT22;24676;51.360;12.354;2023-02-23T16:32:24;10.80;99.90
38910;DHT22;24676;51.360;12.354;2023-02-23T16:35:17;10.70;99.90
38910;DHT22;24676;51.360;12.354;2023-02-23T16:41:05;10.60;99.90
38910;DHT22;24676;51.360;12.354;2023-02-23T16:43:56;10.60;99.90
38910;DHT22;24676;51.360;12.354;2023-02-23T16:47:10;10.60;99.90
38910;DHT22;24676;51.360;12.354;2023-02-23T16:49:55;10.60;99.90
38910;DHT22;24676;51.360;12.354;2023-02-23T16:52:39;10.50;99.90
38910;DHT22;24676;51.360;12.354;2023-02-23T16:55:27;10.50;99.90
38910;DHT22;24676;51.360;12.354;2023-02-23T16:58:17;10.50;99.90
38910;DHT22;24676;51.360;12.354;2023-02-23T17:01:02;10.40;99.90
38910;DHT22;24676;51.360;12.354;2023-02-23T17:03:47;10.40;99.90
38910;DHT22;24676;51.360;12.354;2023-02-23T17:06:31;10.40;99.90
38910;DHT22;24676;51.360;12.354;2023-02-23T17:09:15;10.40;99.90
38910;DHT22;24676;51.360;12.354;2023-02-23T17:12:01;10.30;99.90
38910;DHT22;24676;51.360;12.354;2023-02-23T17:14:47;10.30;99.90
38910;DHT22;24676;51.360;12.354;2023-02-23T17:17:32;10.30;99.90
38910;DHT22;24676;51.360;12.354;2023-02-23T17:20:16;10.20;99.90
38910;DHT22;24676;51.360;12.354;2023-02-23T17:23:05;10.30;99.90
38910;DHT22;24676;51.360;12.354;2023-02-23T17:25:52;10.20;99.90
38910;DHT22;24676;51.360;12.354;2023-02-23T17:28:37;10.30;99.90
38910;DHT22;24676;51.360;12.354;2023-02-23T17:31:21;10.20;99.90
38910;DHT22;24676;51.360;12.354;2023-02-23T17:34:12;10.20;99.90
38910;DHT22;24676;51.360;12.354;2023-02-23T17:36:56;10.20;99.90
38910;DHT22;24676;51.360;12.354;2023-02-23T17:39:41;10.20;99.90
38910;DHT22;24676;51.360;12.354;2023-02-23T17:42:32;10.20;99.90
38910;DHT22;24676;51.360;12.354;2023-02-23T17:45:19;10.20;99.90
38910;DHT22;24676;51.360;12.354;2023-02-23T17:48:09;10.20;99.90
38910;DHT22;24676;51.360;12.354;2023-02-23T17:51:03;10.20;99.90
38910;DHT22;24676;51.360;12.354;2023-02-23T17:53:47;10.20;99.90
38910;DHT22;24676;51.360;12.354;2023-02-23T17:56:32;10.20;99.90
38910;DHT22;24676;51.360;12.354;2023-02-23T17:59:20;10.20;99.90
38910;DHT22;24676;51.360;12.354;2023-02-23T18:02:04;10.20;99.90
38910;DHT22;24676;51.360;12.354;2023-02-23T18:04:50;10.20;99.90
38910;DHT22;24676;51.360;12.354;2023-02-23T18:07:36;10.20;99.90
38910;DHT22;24676;51.360;12.354;2023-02-23T18:10:20;10.20;99.90
38910;DHT22;24676;51.360;12.354;2023-02-23T18:13:08;10.20;99.90
38910;DHT22;24676;51.360;12.354;2023-02-23T18:15:57;10.20;99.90
38910;DHT22;24676;51.360;12.354;2023-02-23T18:18:44;10.20;99.90
38910;DHT22;24676;51.360;12.354;2023-02-23T18:21:29;10.20;99.90
38910;DHT22;24676;51.360;12.354;2023-02-23T18:24:26;10.20;99.90
38910;DHT22;24676;51.360;12.354;2023-02-23T18:27:11;10.30;99.90
38910;DHT22;24676;51.360;12.354;2023-02-23T18:29:55;10.30;99.90
38910;DHT22;24676;51.360;12.354;2023-02-23T18:32:39;10.30;99.90
38910;DHT22;24676;51.360;12.354;2023-02-23T18:35:23;10.20;99.90
38910;DHT22;24676;51.360;12.354;2023-02-23T18:38:10;10.20;99.90
38910;DHT22;24676;51.360;12.354;2023-02-23T18:40:54;10.20;99.90
38910;DHT22;24676;51.360;12.354;2023-02-23T18:43:38;10.20;99.90
38910;DHT22;24676;51.360;12.354;2023-02-23T18:46:23;10.10;99.90
38910;DHT22;24676;51.360;12.354;2023-02-23T18:49:12;10.10;99.90
38910;DHT22;24676;51.360;12.354;2023-02-23T18:51:57;10.10;99.90
38910;DHT22;24676;51.360;12.354;2023-02-23T18:54:43;10.00;99.90
38910;DHT22;24676;51.360;12.354;2023-02-23T18:57:28;10.00;99.90
38910;DHT22;24676;51.360;12.354;2023-02-23T19:00:13;10.00;99.90
38910;DHT22;24676;51.360;12.354;2023-02-23T19:02:58;9.90;99.90
38910;DHT22;24676;51.360;12.354;2023-02-23T19:05:44;9.90;99.90
38910;DHT22;24676;51.360;12.354;2023-02-23T19:08:33;9.80;99.90
38910;DHT22;24676;51.360;12.354;2023-02-23T19:11:17;9.70;99.90
38910;DHT22;24676;51.360;12.354;2023-02-23T19:14:05;9.70;99.90
38910;DHT22;24676;51.360;12.354;2023-02-23T19:16:50;9.60;99.90
38910;DHT22;24676;51.360;12.354;2023-02-23T19:19:34;9.50;99.90
38910;DHT22;24676;51.360;12.354;2023-02-23T19:22:20;9.40;99.90
38910;DHT22;24676;51.360;12.354;2023-02-23T19:25:06;9.40;99.90
38910;DHT22;24676;51.360;12.354;2023-02-23T19:27:50;9.40;99.90
38910;DHT22;24676;51.360;12.354;2023-02-23T19:30:34;9.40;99.90
38910;DHT22;24676;51.360;12.354;2023-02-23T19:33:18;9.40;99.90
38910;DHT22;24676;51.360;12.354;2023-02-23T19:36:11;9.40;99.90